Search for airport 
image banner adimage banner adimage banner ad
image banner ad

6PA3 - Hackenburg-Penny Hill

Located in Montgomery, United States

ICAO - 6PA3, IATA -

Data provided by Airmate  

General information

Coordinates: N41°9'0" W76°53'59"
Elevation is 1000 feet MSL.
Magnetic variation is -11° East
View others Airports in Pennsylvania

Operational data

Special qualification required
Current time UTC:
Current local time:
Weather at : KIPT - Williamsport Rgnl ( 10 km )
METAR: KIPT 182154Z 17007KT 10SM FEW110 27/08 A3023 RMK AO2 SLP234 T02670078
TAF: KIPT 182225Z 1822/1918 VRB04KT P6SM FEW080 FM190100 00000KT P6SM SKC FM191700 VRB04KT P6SM SCT250
View NOTAMs / SUP AIP / TFR affecting this airport [VIEW]
Communications frequencies: [VIEW]

Runways:

RWY identifierQFULength (ft)Width (ft)SurfaceLDA (ft)
E2273140GRASS
W2273140GRASS

Airport contact information

Address: Montgomery United States

Satellite view of 6PA3